Time;durP1;ratioP1;P1;durP2;ratioP2;P2;SDS_P1;SDS_P2;PMS_P1;PMS_P2;Temp;Humidity;BMP_temperature;BMP_pressure;BME280_temperature;BME280_humidity;BME280_pressure;Samples;Min_cycle;Max_cycle;Signal;HPM_P1;HPM_P2
2022/04/15 00:02:11;;;;;;;13.45;3.45;;;;;;;;;;5090880;28;20051;-74
2022/04/15 00:04:41;;;;;;;10.65;2.53;;;;;;;;;;5110252;28;20602;-74
2022/04/15 00:07:10;;;;;;;14.63;2.72;;;;;;;;;;5109198;28;20517;-76
2022/04/15 00:09:40;;;;;;;10.85;2.72;;;;;;;;;;5109734;28;20050;-74
2022/04/15 00:12:17;;;;;;;6.50;2.30;;;;;;;;;;5109282;28;20529;-74
2022/04/15 00:14:47;;;;;;;17.10;2.25;;;;;;;;;;5110221;28;20392;-74
2022/04/15 00:17:17;;;;;;;15.35;2.70;;;;;;;;;;5091140;28;20552;-73
2022/04/15 00:19:47;;;;;;;12.70;4.25;;;;;;;;;;5110735;28;20048;-74
2022/04/15 00:22:17;;;;;;;11.43;4.72;;;;;;;;;;5110159;28;20430;-74
2022/04/15 00:24:47;;;;;;;13.48;3.05;;;;;;;;;;5109822;28;20048;-74
2022/04/15 00:27:17;;;;;;;14.32;6.38;;;;;;;;;;5109763;28;20071;-73
2022/04/15 00:29:47;;;;;;;30.40;15.68;;;;;;;;;;5110052;28;20044;-74
2022/04/15 00:32:17;;;;;;;40.40;18.40;;;;;;;;;;5109899;28;20048;-73
2022/04/15 00:34:47;;;;;;;26.38;12.02;;;;;;;;;;5110451;28;20044;-74
2022/04/15 00:37:17;;;;;;;25.17;11.00;;;;;;;;;;5109661;28;20043;-74
2022/04/15 00:39:47;;;;;;;25.65;10.50;;;;;;;;;;5109876;28;20044;-73
2022/04/15 00:42:17;;;;;;;16.27;6.70;;;;;;;;;;5109814;28;20036;-73
2022/04/15 00:44:48;;;;;;;16.25;4.32;;;;;;;;;;5110266;28;20062;-76
2022/04/15 00:47:25;;;;;;;12.35;3.55;;;;;;;;;;5110173;28;20047;-73
2022/04/15 00:49:57;;;;;;;12.48;3.55;;;;;;;;;;5108688;28;20062;-73
2022/04/15 00:52:33;;;;;;;6.50;3.53;;;;;;;;;;5108390;28;20054;-74
2022/04/15 00:55:05;;;;;;;9.98;2.70;;;;;;;;;;5109310;28;20117;-75
2022/04/15 00:57:40;;;;;;;8.40;3.33;;;;;;;;;;5110015;28;20055;-75
2022/04/15 01:00:12;;;;;;;17.73;3.42;;;;;;;;;;5073588;28;20056;-75
2022/04/15 01:02:44;;;;;;;6.93;2.83;;;;;;;;;;5107867;28;20051;-76
2022/04/15 01:05:15;;;;;;;10.25;3.25;;;;;;;;;;5107734;28;20044;-75
2022/04/15 01:07:50;;;;;;;9.30;3.05;;;;;;;;;;5105443;28;20040;-74
2022/04/15 01:10:21;;;;;;;11.80;2.45;;;;;;;;;;5107639;28;20058;-75
2022/04/15 01:12:54;;;;;;;6.93;2.35;;;;;;;;;;5108377;28;20051;-75
2022/04/15 01:15:45;;;;;;;6.50;2.20;;;;;;;;;;5108165;28;20066;-74
2022/04/15 01:18:15;;;;;;;14.77;2.40;;;;;;;;;;5109445;28;20047;-76
2022/04/15 01:20:50;;;;;;;9.70;2.03;;;;;;;;;;5108748;28;20557;-75
2022/04/15 01:23:21;;;;;;;7.18;2.55;;;;;;;;;;5106020;28;20525;-75
2022/04/15 01:25:52;;;;;;;5.90;1.55;;;;;;;;;;5108406;28;20053;-74
2022/04/15 01:28:22;;;;;;;9.75;2.30;;;;;;;;;;5109135;28;20047;-74
2022/04/15 01:30:52;;;;;;;12.15;2.03;;;;;;;;;;5108027;28;20073;-74
2022/04/15 01:33:22;;;;;;;13.45;1.92;;;;;;;;;;5108543;28;20055;-75
2022/04/15 01:35:56;;;;;;;11.85;4.97;;;;;;;;;;5107746;28;20525;-75
2022/04/15 01:38:26;;;;;;;12.77;6.28;;;;;;;;;;5107419;28;20533;-76
2022/04/15 01:40:56;;;;;;;12.38;4.55;;;;;;;;;;5107957;28;20050;-74
2022/04/15 01:43:26;;;;;;;19.15;5.78;;;;;;;;;;5108646;28;20392;-74
2022/04/15 01:45:56;;;;;;;16.33;4.03;;;;;;;;;;5109186;28;20487;-75
2022/04/15 01:48:26;;;;;;;12.52;4.35;;;;;;;;;;5107619;28;20063;-74
2022/04/15 01:50:58;;;;;;;7.67;4.23;;;;;;;;;;5107704;28;20055;-75
2022/04/15 01:53:28;;;;;;;7.13;3.78;;;;;;;;;;5090733;28;20054;-75
2022/04/15 01:55:58;;;;;;;13.45;3.38;;;;;;;;;;5108091;28;20415;-74
2022/04/15 01:58:29;;;;;;;8.00;2.90;;;;;;;;;;5108609;28;20818;-75
2022/04/15 02:01:00;;;;;;;5.93;2.90;;;;;;;;;;5107621;28;20510;-74
2022/04/15 02:03:30;;;;;;;8.52;2.95;;;;;;;;;;5107114;28;20051;-74
2022/04/15 02:06:00;;;;;;;13.95;3.88;;;;;;;;;;5108360;28;20063;-74
2022/04/15 02:08:30;;;;;;;5.10;2.38;;;;;;;;;;5108121;28;20055;-74
2022/04/15 02:11:00;;;;;;;5.22;2.60;;;;;;;;;;5107928;28;20067;-74
2022/04/15 02:13:30;;;;;;;4.78;2.17;;;;;;;;;;5107726;28;20063;-74
2022/04/15 02:16:00;;;;;;;5.28;2.65;;;;;;;;;;5108306;28;20056;-74
2022/04/15 02:18:31;;;;;;;;;;;;;;;;;;5108423;28;20402;-74
2022/04/15 02:21:01;;;;;;;7.72;2.40;;;;;;;;;;5108166;28;19923;-74
2022/04/15 02:23:32;;;;;;;7.88;2.40;;;;;;;;;;5108289;28;20486;-74
2022/04/15 02:26:02;;;;;;;3.35;2.08;;;;;;;;;;5107795;28;20047;-74
2022/04/15 02:28:32;;;;;;;4.32;2.50;;;;;;;;;;5108287;28;20055;-74
2022/04/15 02:31:02;;;;;;;6.25;2.30;;;;;;;;;;5088760;28;20048;-75
2022/04/15 02:33:32;;;;;;;5.13;2.45;;;;;;;;;;5106506;28;20815;-74
2022/04/15 02:36:02;;;;;;;9.88;2.55;;;;;;;;;;5107629;28;20402;-74
2022/04/15 02:38:32;;;;;;;12.73;2.67;;;;;;;;;;5107687;28;20047;-74
2022/04/15 02:41:05;;;;;;;5.53;2.30;;;;;;;;;;5107160;28;20047;-74
2022/04/15 02:43:38;;;;;;;14.35;2.72;;;;;;;;;;5106956;28;20063;-75
2022/04/15 02:46:10;;;;;;;5.82;2.53;;;;;;;;;;5107483;28;20047;-74
2022/04/15 02:48:41;;;;;;;8.95;2.55;;;;;;;;;;5107352;28;20048;-74
2022/04/15 02:51:14;;;;;;;6.80;2.47;;;;;;;;;;5107276;28;20580;-74
2022/04/15 02:53:44;;;;;;;7.47;2.45;;;;;;;;;;5107326;28;20048;-74
2022/04/15 02:56:15;;;;;;;;;;;;;;;;;;5107644;28;20414;-74
2022/04/15 02:58:45;;;;;;;4.22;2.30;;;;;;;;;;5107239;28;19942;-74
2022/04/15 03:01:15;;;;;;;7.78;2.50;;;;;;;;;;5106562;28;20051;-74
2022/04/15 03:03:45;;;;;;;5.75;2.33;;;;;;;;;;5088757;28;20039;-74
2022/04/15 03:06:14;;;;;;;5.95;2.88;;;;;;;;;;5106772;28;20050;-75
2022/04/15 03:08:44;;;;;;;10.90;2.83;;;;;;;;;;5107015;28;20035;-75
2022/04/15 03:11:14;;;;;;;9.27;2.65;;;;;;;;;;5107023;28;20047;-74
2022/04/15 03:13:44;;;;;;;6.18;3.00;;;;;;;;;;5106705;28;20050;-74
2022/04/15 03:16:15;;;;;;;5.75;2.70;;;;;;;;;;5107008;28;20074;-74
2022/04/15 03:18:45;;;;;;;5.03;2.50;;;;;;;;;;5106451;28;20058;-74
2022/04/15 03:21:15;;;;;;;10.68;2.72;;;;;;;;;;5107060;28;20032;-74
2022/04/15 03:23:46;;;;;;;7.30;2.85;;;;;;;;;;5106886;28;20047;-74
2022/04/15 03:26:16;;;;;;;14.48;3.00;;;;;;;;;;5106103;28;20046;-74
2022/04/15 03:28:46;;;;;;;9.30;2.88;;;;;;;;;;5106152;28;20047;-74
2022/04/15 03:31:16;;;;;;;7.47;2.45;;;;;;;;;;5106788;28;20056;-74
2022/04/15 03:33:47;;;;;;;4.35;2.55;;;;;;;;;;5106940;28;20056;-74
2022/04/15 03:36:17;;;;;;;9.13;2.88;;;;;;;;;;5106824;28;20125;-74
2022/04/15 03:38:47;;;;;;;10.93;2.70;;;;;;;;;;5106723;28;20051;-75
2022/04/15 03:41:19;;;;;;;7.18;3.03;;;;;;;;;;5107333;28;20055;-74
2022/04/15 03:43:53;;;;;;;11.48;4.00;;;;;;;;;;5105942;28;20487;-75
2022/04/15 03:46:23;;;;;;;7.28;3.22;;;;;;;;;;5088088;28;20078;-74
2022/04/15 03:48:53;;;;;;;5.55;2.83;;;;;;;;;;5106634;28;20141;-75
2022/04/15 03:51:23;;;;;;;10.25;2.60;;;;;;;;;;5106309;28;20621;-74
2022/04/15 03:53:52;;;;;;;7.65;3.15;;;;;;;;;;5106901;28;20051;-74
2022/04/15 03:56:22;;;;;;;7.72;3.00;;;;;;;;;;5106267;28;20059;-74
2022/04/15 03:58:52;;;;;;;13.15;3.38;;;;;;;;;;5106434;28;20537;-74
2022/04/15 04:01:23;;;;;;;10.90;2.75;;;;;;;;;;5106118;28;20048;-74
2022/04/15 04:03:53;;;;;;;;;;;;;;;;;;5106887;28;20040;-75
2022/04/15 04:06:25;;;;;;;9.35;3.05;;;;;;;;;;5106794;28;20504;-74
2022/04/15 04:08:55;;;;;;;6.60;3.10;;;;;;;;;;5106949;28;20052;-74
2022/04/15 04:11:25;;;;;;;13.32;3.70;;;;;;;;;;5106107;28;20058;-74
2022/04/15 04:13:55;;;;;;;8.50;3.30;;;;;;;;;;5106353;28;20044;-75
2022/04/15 04:16:24;;;;;;;12.20;3.53;;;;;;;;;;5106009;28;20040;-74
2022/04/15 04:18:55;;;;;;;6.30;3.65;;;;;;;;;;5106197;28;20518;-74
2022/04/15 04:21:25;;;;;;;8.05;3.50;;;;;;;;;;5105226;28;20070;-74
2022/04/15 04:23:55;;;;;;;11.63;3.45;;;;;;;;;;5106936;28;20414;-74
2022/04/15 04:26:25;;;;;;;5.18;3.35;;;;;;;;;;5106019;28;20039;-74
2022/04/15 04:28:55;;;;;;;15.88;3.58;;;;;;;;;;5107948;28;20046;-74
2022/04/15 04:31:25;;;;;;;15.50;5.03;;;;;;;;;;5110961;28;20058;-74
2022/04/15 04:33:55;;;;;;;16.45;4.50;;;;;;;;;;5110657;28;20043;-75
2022/04/15 04:36:25;;;;;;;11.60;4.63;;;;;;;;;;5109870;28;20040;-74
2022/04/15 04:38:55;;;;;;;11.40;4.67;;;;;;;;;;5109764;28;20044;-74
2022/04/15 04:41:25;;;;;;;16.13;4.75;;;;;;;;;;5110009;28;20043;-74
2022/04/15 04:43:55;;;;;;;8.13;4.15;;;;;;;;;;5109146;28;20403;-74
2022/04/15 04:46:25;;;;;;;9.20;3.95;;;;;;;;;;5110442;28;20043;-74
2022/04/15 04:48:55;;;;;;;9.98;4.57;;;;;;;;;;5109334;28;20046;-74
2022/04/15 04:51:25;;;;;;;9.68;4.85;;;;;;;;;;5091813;28;20051;-74
2022/04/15 04:53:55;;;;;;;8.48;4.85;;;;;;;;;;5108789;28;20066;-74
2022/04/15 04:56:26;;;;;;;12.68;4.78;;;;;;;;;;5109978;28;20066;-74
2022/04/15 04:58:57;;;;;;;12.52;5.70;;;;;;;;;;5109698;28;20051;-74
2022/04/15 05:01:27;;;;;;;12.52;6.28;;;;;;;;;;5109347;28;20422;-74
2022/04/15 05:03:58;;;;;;;8.82;5.72;;;;;;;;;;5109817;28;20044;-74
2022/04/15 05:06:27;;;;;;;18.05;6.03;;;;;;;;;;5109538;28;20050;-74
2022/04/15 05:08:57;;;;;;;8.93;4.75;;;;;;;;;;5091696;28;20054;-74
2022/04/15 05:11:28;;;;;;;12.38;5.32;;;;;;;;;;5109900;28;20051;-75
2022/04/15 05:13:58;;;;;;;16.15;5.65;;;;;;;;;;5111729;28;20042;-75
2022/04/15 05:16:28;;;;;;;16.77;5.70;;;;;;;;;;5135228;28;20024;-75
2022/04/15 05:18:58;;;;;;;10.15;5.28;;;;;;;;;;5135786;28;20028;-75
2022/04/15 05:21:28;;;;;;;10.32;5.35;;;;;;;;;;5134891;28;20030;-75
2022/04/15 05:23:58;;;;;;;11.95;5.20;;;;;;;;;;5117452;28;20032;-75
2022/04/15 05:26:29;;;;;;;9.32;5.20;;;;;;;;;;5133822;28;20032;-74
2022/04/15 05:28:59;;;;;;;8.07;4.57;;;;;;;;;;5113620;28;20051;-75
2022/04/15 05:31:29;;;;;;;10.57;5.50;;;;;;;;;;5089540;28;20052;-74
2022/04/15 05:34:00;;;;;;;8.20;5.32;;;;;;;;;;5109110;28;20047;-74
2022/04/15 05:36:30;;;;;;;;;;;;;;;;;;5109385;28;20229;-74
2022/04/15 05:39:00;;;;;;;16.13;4.97;;;;;;;;;;5108547;28;19919;-75
2022/04/15 05:41:30;;;;;;;10.40;4.68;;;;;;;;;;5108309;28;20044;-75
2022/04/15 05:44:03;;;;;;;9.43;4.65;;;;;;;;;;5108060;28;20515;-74
2022/04/15 05:46:34;;;;;;;14.27;5.03;;;;;;;;;;5108542;28;20529;-74
2022/04/15 05:49:13;;;;;;;10.23;5.30;;;;;;;;;;5108074;28;20058;-74
2022/04/15 05:51:43;;;;;;;10.93;4.43;;;;;;;;;;5108853;28;20054;-74
2022/04/15 05:54:14;;;;;;;9.98;5.18;;;;;;;;;;5107912;28;20044;-75
2022/04/15 05:56:44;;;;;;;11.88;5.30;;;;;;;;;;5107876;28;20051;-74
2022/04/15 05:59:14;;;;;;;9.27;4.45;;;;;;;;;;5107877;28;20048;-74
2022/04/15 06:01:44;;;;;;;11.55;5.07;;;;;;;;;;5108495;28;20580;-74
2022/04/15 06:04:15;;;;;;;10.67;4.93;;;;;;;;;;5091008;28;20123;-74
2022/04/15 06:06:46;;;;;;;7.95;4.72;;;;;;;;;;5108448;28;20050;-74
2022/04/15 06:09:16;;;;;;;;;;;;;;;;;;5108928;28;20501;-74
2022/04/15 06:11:45;;;;;;;9.35;4.35;;;;;;;;;;5108078;28;19920;-74
2022/04/15 06:14:17;;;;;;;9.05;4.10;;;;;;;;;;5107658;28;20039;-74
2022/04/15 06:16:47;;;;;;;10.82;4.68;;;;;;;;;;5107484;28;20071;-74
2022/04/15 06:19:17;;;;;;;10.55;4.65;;;;;;;;;;5108144;28;20047;-74
2022/04/15 06:21:53;;;;;;;17.30;4.95;;;;;;;;;;5090579;28;20507;-75
2022/04/15 06:24:23;;;;;;;7.20;4.45;;;;;;;;;;5108306;28;20039;-74
2022/04/15 06:26:53;;;;;;;7.18;4.03;;;;;;;;;;5108323;28;20047;-74
2022/04/15 06:29:23;;;;;;;9.13;4.28;;;;;;;;;;5108270;28;20047;-74
2022/04/15 06:31:53;;;;;;;9.30;4.82;;;;;;;;;;5107583;28;20086;-74
2022/04/15 06:34:23;;;;;;;15.75;4.63;;;;;;;;;;5108466;28;20043;-74
2022/04/15 06:36:55;;;;;;;9.07;4.75;;;;;;;;;;5106908;28;20054;-74
2022/04/15 06:39:25;;;;;;;7.65;4.53;;;;;;;;;;5089082;28;20434;-74
2022/04/15 06:41:55;;;;;;;7.13;4.35;;;;;;;;;;5107913;28;20051;-74
2022/04/15 06:44:25;;;;;;;11.35;4.65;;;;;;;;;;5106845;28;20130;-74
2022/04/15 06:46:54;;;;;;;11.90;4.45;;;;;;;;;;5107704;28;20046;-74
2022/04/15 06:49:24;;;;;;;15.85;4.75;;;;;;;;;;5088348;28;20043;-74
2022/04/15 06:51:54;;;;;;;10.32;4.47;;;;;;;;;;5106756;28;20047;-74
2022/04/15 06:54:25;;;;;;;8.20;5.28;;;;;;;;;;5107107;28;20426;-75
2022/04/15 06:56:55;;;;;;;8.50;4.80;;;;;;;;;;5106978;28;20430;-73
2022/04/15 06:59:24;;;;;;;8.82;4.70;;;;;;;;;;5107225;28;20047;-73
2022/04/15 07:01:55;;;;;;;15.00;5.07;;;;;;;;;;5107321;28;20044;-74
2022/04/15 07:04:25;;;;;;;9.55;5.03;;;;;;;;;;5106898;28;20063;-73
2022/04/15 07:06:56;;;;;;;16.52;6.25;;;;;;;;;;5107048;28;20039;-73
2022/04/15 07:09:26;;;;;;;14.10;5.47;;;;;;;;;;5106127;28;20040;-73
2022/04/15 07:11:56;;;;;;;13.32;5.07;;;;;;;;;;5105936;28;20048;-73
2022/04/15 07:14:29;;;;;;;11.93;5.38;;;;;;;;;;5088644;28;20059;-73
2022/04/15 07:17:00;;;;;;;15.90;5.50;;;;;;;;;;5107212;28;20058;-73
2022/04/15 07:19:30;;;;;;;13.48;4.60;;;;;;;;;;5107130;28;20050;-73
2022/04/15 07:22:00;;;;;;;10.15;4.85;;;;;;;;;;5106328;28;20047;-74
2022/04/15 07:24:30;;;;;;;14.43;4.55;;;;;;;;;;5106927;28;20050;-73
2022/04/15 07:27:02;;;;;;;11.23;4.40;;;;;;;;;;5107081;28;20039;-73
2022/04/15 07:29:32;;;;;;;10.52;4.22;;;;;;;;;;5107809;28;20059;-73
2022/04/15 07:32:03;;;;;;;9.60;3.88;;;;;;;;;;5106866;28;20043;-73
2022/04/15 07:34:35;;;;;;;12.07;4.67;;;;;;;;;;5106548;28;20055;-73
2022/04/15 07:37:05;;;;;;;9.15;3.85;;;;;;;;;;5088464;28;20282;-73
2022/04/15 07:39:35;;;;;;;7.75;3.75;;;;;;;;;;5107196;28;20414;-73
2022/04/15 07:42:05;;;;;;;9.80;3.63;;;;;;;;;;5107001;28;20039;-73
2022/04/15 07:44:36;;;;;;;;;;;;;;;;;;5107315;28;20747;-73
2022/04/15 07:47:07;;;;;;;7.20;3.30;;;;;;;;;;5106176;28;19927;-73
2022/04/15 07:49:39;;;;;;;15.13;3.65;;;;;;;;;;5106942;28;20048;-75
2022/04/15 07:52:09;;;;;;;11.93;3.85;;;;;;;;;;5106123;28;20054;-73
2022/04/15 07:54:42;;;;;;;5.05;2.95;;;;;;;;;;5088686;28;20044;-74
2022/04/15 07:57:12;;;;;;;12.48;3.42;;;;;;;;;;5106218;28;20407;-74
2022/04/15 07:59:44;;;;;;;7.53;3.07;;;;;;;;;;5106956;28;20044;-74
2022/04/15 08:02:16;;;;;;;5.78;3.38;;;;;;;;;;5106851;28;20040;-74
2022/04/15 08:04:47;;;;;;;15.73;3.60;;;;;;;;;;5109345;28;20056;-73
2022/04/15 08:07:18;;;;;;;10.82;3.95;;;;;;;;;;5109980;28;20051;-73
2022/04/15 08:09:48;;;;;;;25.30;13.25;;;;;;;;;;5091598;28;20052;-74
2022/04/15 08:12:18;;;;;;;17.63;11.25;;;;;;;;;;5110964;28;20486;-74
2022/04/15 08:14:48;;;;;;;12.15;6.85;;;;;;;;;;5110605;28;20059;-74
2022/04/15 08:17:19;;;;;;;10.45;5.38;;;;;;;;;;5110421;28;20410;-74
2022/04/15 08:19:48;;;;;;;6.78;3.83;;;;;;;;;;5110393;28;20048;-74
2022/04/15 08:22:19;;;;;;;14.48;5.78;;;;;;;;;;5109942;28;20066;-73
2022/04/15 08:24:49;;;;;;;8.85;4.72;;;;;;;;;;5109264;28;20380;-74
2022/04/15 08:27:19;;;;;;;13.38;4.72;;;;;;;;;;5110009;28;20056;-74
2022/04/15 08:29:50;;;;;;;8.10;4.80;;;;;;;;;;5092735;28;20074;-74
2022/04/15 08:32:21;;;;;;;13.38;6.00;;;;;;;;;;5110299;28;20035;-74
2022/04/15 08:34:52;;;;;;;13.18;6.38;;;;;;;;;;5110029;28;20494;-74
2022/04/15 08:37:21;;;;;;;11.55;5.72;;;;;;;;;;5110347;28;20050;-75
2022/04/15 08:39:51;;;;;;;10.57;4.97;;;;;;;;;;5109871;28;20788;-73
2022/04/15 08:42:21;;;;;;;9.80;5.15;;;;;;;;;;5109611;28;20043;-74
2022/04/15 08:44:52;;;;;;;15.63;6.25;;;;;;;;;;5109667;28;20650;-74
2022/04/15 08:47:24;;;;;;;15.10;5.10;;;;;;;;;;5092125;28;20394;-74
2022/04/15 08:49:55;;;;;;;8.70;5.10;;;;;;;;;;5109784;28;20040;-74
2022/04/15 08:52:25;;;;;;;8.27;4.28;;;;;;;;;;5110449;28;20058;-74
2022/04/15 08:54:55;;;;;;;10.10;4.38;;;;;;;;;;5109685;28;20043;-74
2022/04/15 08:57:25;;;;;;;9.38;5.00;;;;;;;;;;5109849;28;20050;-74
2022/04/15 08:59:55;;;;;;;10.55;4.95;;;;;;;;;;5109097;28;20052;-74
2022/04/15 09:02:37;;;;;;;7.00;5.70;;;;;;;;;;5109506;28;20430;-74
2022/04/15 09:05:13;;;;;;;9.20;6.70;;;;;;;;;;5109656;28;20047;-74
2022/04/15 09:07:43;;;;;;;;;;;;;;;;;;5109637;28;20524;-74
2022/04/15 09:10:15;;;;;;;14.50;5.60;;;;;;;;;;5109298;28;19931;-74
2022/04/15 09:12:47;;;;;;;13.05;5.50;;;;;;;;;;5109092;28;20075;-73
2022/04/15 09:15:17;;;;;;;13.13;5.15;;;;;;;;;;5109083;28;20502;-73
2022/04/15 09:17:52;;;;;;;7.80;4.78;;;;;;;;;;5091032;28;20056;-74
2022/04/15 09:20:23;;;;;;;13.57;4.97;;;;;;;;;;5109024;28;20055;-74
2022/04/15 09:22:57;;;;;;;11.27;5.07;;;;;;;;;;5090473;28;20058;-74
2022/04/15 09:25:28;;;;;;;7.90;4.55;;;;;;;;;;5107878;28;20056;-73
2022/04/15 09:27:58;;;;;;;8.73;4.25;;;;;;;;;;5108850;28;20047;-73
2022/04/15 09:30:33;;;;;;;9.55;5.03;;;;;;;;;;5109100;28;20059;-73
2022/04/15 09:33:04;;;;;;;12.00;4.38;;;;;;;;;;5108097;28;20102;-73
2022/04/15 09:35:34;;;;;;;8.50;4.03;;;;;;;;;;5109413;28;20417;-73
2022/04/15 09:38:05;;;;;;;9.70;4.43;;;;;;;;;;5109193;28;20043;-73
2022/04/15 09:40:37;;;;;;;10.60;4.20;;;;;;;;;;5109329;28;20517;-73
2022/04/15 09:43:07;;;;;;;;;;;;;;;;;;5090149;28;20047;-73
2022/04/15 09:45:37;;;;;;;7.40;4.25;;;;;;;;;;5108547;28;20306;-74
2022/04/15 09:48:09;;;;;;;8.50;3.78;;;;;;;;;;5109028;28;20051;-75
2022/04/15 09:50:42;;;;;;;6.25;3.60;;;;;;;;;;5108866;28;20062;-74
2022/04/15 09:53:15;;;;;;;8.90;4.00;;;;;;;;;;5108459;28;20063;-73
2022/04/15 09:55:51;;;;;;;8.70;3.88;;;;;;;;;;5108894;28;20043;-75
2022/04/15 09:58:23;;;;;;;9.88;4.57;;;;;;;;;;5090571;28;20046;-74
2022/04/15 10:00:55;;;;;;;12.73;4.00;;;;;;;;;;5108804;28;20039;-74
2022/04/15 10:03:27;;;;;;;13.60;4.15;;;;;;;;;;5108753;28;20055;-74
2022/04/15 10:05:58;;;;;;;12.45;4.28;;;;;;;;;;5089997;28;20422;-74
2022/04/15 10:08:28;;;;;;;6.53;3.65;;;;;;;;;;5107666;28;20043;-74
2022/04/15 10:10:58;;;;;;;8.38;4.03;;;;;;;;;;5108257;28;20047;-73
2022/04/15 10:13:29;;;;;;;11.07;4.30;;;;;;;;;;5107822;28;20055;-73
2022/04/15 10:15:59;;;;;;;12.18;3.92;;;;;;;;;;5107573;28;20055;-73
2022/04/15 10:18:30;;;;;;;8.48;3.60;;;;;;;;;;5107767;28;20039;-73
2022/04/15 10:21:03;;;;;;;7.47;3.90;;;;;;;;;;5107363;28;20051;-74
2022/04/15 10:23:35;;;;;;;6.97;3.70;;;;;;;;;;5107518;28;20051;-73
2022/04/15 10:26:06;;;;;;;9.35;3.58;;;;;;;;;;5089770;28;20054;-75
2022/04/15 10:28:42;;;;;;;9.60;3.97;;;;;;;;;;5106218;28;20047;-75
2022/04/15 10:31:16;;;;;;;8.65;4.28;;;;;;;;;;5107856;28;20051;-75
2022/04/15 10:33:51;;;;;;;18.35;4.97;;;;;;;;;;5107560;28;20051;-75
2022/04/15 10:36:24;;;;;;;6.72;5.03;;;;;;;;;;5107300;28;20054;-75
2022/04/15 10:39:07;;;;;;;7.90;4.55;;;;;;;;;;5107686;28;20048;-74
2022/04/15 10:41:44;;;;;;;10.18;4.18;;;;;;;;;;5107804;28;20402;-75
2022/04/15 10:44:41;;;;;;;8.88;3.80;;;;;;;;;;5107446;28;20521;-76
2022/04/15 10:47:27;;;;;;;7.95;3.15;;;;;;;;;;5097766;28;20036;-74
2022/04/15 10:50:09;;;;;;;7.15;3.20;;;;;;;;;;5108197;28;20066;-76
2022/04/15 10:52:40;;;;;;;13.48;3.38;;;;;;;;;;5088943;28;20051;-75
2022/04/15 10:55:14;;;;;;;10.70;3.42;;;;;;;;;;5106475;28;20059;-77
2022/04/15 10:57:46;;;;;;;11.68;3.47;;;;;;;;;;5106629;28;20553;-76
2022/04/15 11:03:25;;;;;;;37.30;17.65;;;;;;;;;;5107214;28;20044;-75
2022/04/15 11:06:05;;;;;;;16.10;7.85;;;;;;;;;;5106937;28;20926;-74
2022/04/15 11:08:55;;;;;;;11.45;5.15;;;;;;;;;;5106986;28;20051;-76
2022/04/15 11:11:40;;;;;;;8.88;3.65;;;;;;;;;;5107290;28;20044;-74
2022/04/15 11:14:13;;;;;;;4.45;2.60;;;;;;;;;;5107613;28;20039;-75
2022/04/15 11:16:50;;;;;;;7.72;2.75;;;;;;;;;;5107635;28;20498;-75
2022/04/15 11:19:25;;;;;;;12.18;3.25;;;;;;;;;;5106965;28;20062;-74
2022/04/15 11:21:55;;;;;;;7.75;3.20;;;;;;;;;;5107038;28;20406;-76
2022/04/15 11:24:30;;;;;;;10.77;3.30;;;;;;;;;;5106870;28;20070;-77
2022/04/15 11:27:05;;;;;;;10.07;3.20;;;;;;;;;;5087775;28;20052;-74
2022/04/15 11:29:37;;;;;;;11.60;3.63;;;;;;;;;;5106414;28;20051;-76
2022/04/15 11:32:08;;;;;;;7.60;2.67;;;;;;;;;;5107657;28;20043;-77
2022/04/15 11:34:38;;;;;;;10.77;2.90;;;;;;;;;;5107010;28;20055;-76
2022/04/15 11:37:09;;;;;;;8.10;2.53;;;;;;;;;;5087930;28;20055;-79
2022/04/15 11:39:42;;;;;;;;;;;;;;;;;;5110961;28;20402;-76
2022/04/15 11:42:12;;;;;;;11.70;3.22;;;;;;;;;;5111211;28;19931;-74
2022/04/15 11:44:43;;;;;;;13.35;3.42;;;;;;;;;;5092863;28;20052;-75
2022/04/15 11:47:26;;;;;;;11.63;2.72;;;;;;;;;;5111210;28;20046;-76
2022/04/15 11:49:57;;;;;;;11.90;2.90;;;;;;;;;;5110102;28;20055;-76
2022/04/15 11:52:33;;;;;;;8.68;3.08;;;;;;;;;;5111351;28;20035;-76
2022/04/15 11:55:03;;;;;;;12.52;2.63;;;;;;;;;;5111622;28;20055;-73
2022/04/15 11:57:33;;;;;;;12.75;3.15;;;;;;;;;;5109899;28;20518;-74
2022/04/15 12:00:03;;;;;;;8.63;3.15;;;;;;;;;;5111773;28;20083;-73
2022/04/15 12:02:42;;;;;;;12.77;3.75;;;;;;;;;;5113275;28;20051;-78
2022/04/15 12:05:13;;;;;;;11.32;3.75;;;;;;;;;;5093461;28;20054;-76
2022/04/15 12:07:43;;;;;;;13.07;3.35;;;;;;;;;;5111400;28;20078;-74
2022/04/15 12:10:14;;;;;;;7.85;3.63;;;;;;;;;;5110730;28;20047;-76
2022/04/15 12:12:43;;;;;;;10.90;3.42;;;;;;;;;;5110746;28;20531;-76
2022/04/15 12:15:13;;;;;;;9.43;3.13;;;;;;;;;;5092270;28;20059;-77
2022/04/15 12:17:43;;;;;;;9.95;2.80;;;;;;;;;;5110337;28;20048;-75
2022/04/15 12:20:16;;;;;;;9.23;2.80;;;;;;;;;;5110803;28;20520;-77
2022/04/15 12:22:46;;;;;;;11.90;4.10;;;;;;;;;;5110568;28;20114;-76
2022/04/15 12:25:18;;;;;;;7.30;2.53;;;;;;;;;;5111128;28;20494;-75
2022/04/15 12:27:48;;;;;;;9.63;2.33;;;;;;;;;;5110657;28;20055;-76
2022/04/15 12:30:39;;;;;;;13.95;3.47;;;;;;;;;;5109506;28;20050;-74
2022/04/15 12:33:12;;;;;;;11.82;3.00;;;;;;;;;;5110638;28;20046;-75
2022/04/15 12:36:02;;;;;;;8.25;2.85;;;;;;;;;;5091284;28;20389;-77
2022/04/15 12:39:03;;;;;;;14.40;3.00;;;;;;;;;;5110022;28;20494;-76
2022/04/15 12:41:51;;;;;;;;;;;;;;;;;;5110009;28;20067;-76
2022/04/15 12:44:29;;;;;;;8.15;2.50;;;;;;;;;;5109844;28;19933;-75
2022/04/15 12:47:02;;;;;;;8.50;2.60;;;;;;;;;;5109297;28;20040;-79
2022/04/15 12:49:34;;;;;;;13.65;3.70;;;;;;;;;;5109067;28;20043;-78
2022/04/15 12:52:16;;;;;;;13.57;2.90;;;;;;;;;;5109634;28;20043;-78
2022/04/15 12:55:04;;;;;;;11.38;3.08;;;;;;;;;;5110008;28;20070;-74
2022/04/15 12:57:43;;;;;;;14.45;3.15;;;;;;;;;;5092854;28;20040;-75
2022/04/15 13:00:13;;;;;;;7.82;2.63;;;;;;;;;;5109851;28;20402;-76
2022/04/15 13:02:43;;;;;;;9.82;2.92;;;;;;;;;;5110203;28;20052;-75
2022/04/15 13:05:14;;;;;;;8.15;2.90;;;;;;;;;;5110189;28;20088;-76
2022/04/15 13:07:46;;;;;;;11.32;2.83;;;;;;;;;;5109951;28;20051;-79
2022/04/15 13:10:18;;;;;;;10.90;3.00;;;;;;;;;;5109785;28;20465;-76
2022/04/15 13:13:09;;;;;;;8.60;3.13;;;;;;;;;;5110026;28;20616;-76
2022/04/15 13:15:38;;;;;;;11.80;2.80;;;;;;;;;;5109575;28;20819;-81
2022/04/15 13:18:08;;;;;;;20.33;4.03;;;;;;;;;;5123979;27;20063;-76
2022/04/15 13:20:38;;;;;;;8.98;2.80;;;;;;;;;;5091557;28;20417;-73
2022/04/15 13:23:10;;;;;;;;;;;;;;;;;;5110354;28;20048;-76
2022/04/15 13:25:40;;;;;;;11.52;3.20;;;;;;;;;;5109669;28;19947;-78
2022/04/15 13:28:10;;;;;;;9.70;3.13;;;;;;;;;;5123604;27;20062;-77
2022/04/15 13:30:45;;;;;;;10.77;2.63;;;;;;;;;;5109280;28;20050;-76
2022/04/15 13:33:15;;;;;;;14.10;2.80;;;;;;;;;;5109004;28;20395;-78
2022/04/15 13:35:45;;;;;;;19.27;3.55;;;;;;;;;;5108976;28;20056;-75
2022/04/15 13:38:15;;;;;;;10.43;2.97;;;;;;;;;;5109464;28;20525;-81
2022/04/15 13:40:46;;;;;;;9.23;2.80;;;;;;;;;;5109325;28;20058;-74
2022/04/15 13:43:16;;;;;;;12.18;3.33;;;;;;;;;;5090389;28;20059;-75
2022/04/15 13:45:46;;;;;;;7.63;2.77;;;;;;;;;;5109587;28;20055;-76
2022/04/15 13:48:16;;;;;;;10.57;2.53;;;;;;;;;;5108882;28;20891;-76
2022/04/15 13:50:46;;;;;;;15.98;3.45;;;;;;;;;;5108571;28;20043;-76
2022/04/15 13:58:56;;;;;;;11.55;2.70;;;;;;;;;;5107161;28;20048;-77
2022/04/15 14:01:28;;;;;;;9.90;2.90;;;;;;;;;;5106556;28;20056;-76
2022/04/15 14:04:01;;;;;;;13.13;2.88;;;;;;;;;;5108298;28;20052;-77
2022/04/15 14:06:31;;;;;;;9.32;2.97;;;;;;;;;;5108676;28;20403;-75
2022/04/15 14:09:01;;;;;;;8.82;2.50;;;;;;;;;;5106008;28;20481;-75
2022/04/15 14:11:33;;;;;;;11.83;3.00;;;;;;;;;;5108668;28;20074;-74
2022/04/15 14:14:05;;;;;;;11.10;3.17;;;;;;;;;;5107994;28;20031;-74
2022/04/15 14:16:36;;;;;;;15.05;3.08;;;;;;;;;;5107272;28;20056;-82
2022/04/15 14:19:08;;;;;;;11.67;2.83;;;;;;;;;;5104768;28;20051;-75
2022/04/15 14:21:40;;;;;;;15.98;2.95;;;;;;;;;;5088127;28;20682;-76
2022/04/15 14:24:11;;;;;;;9.10;2.65;;;;;;;;;;5107399;28;20040;-76
2022/04/15 14:26:41;;;;;;;12.45;3.17;;;;;;;;;;5106958;28;20054;-76
2022/04/15 14:29:10;;;;;;;14.65;2.97;;;;;;;;;;5107349;28;20426;-75
2022/04/15 14:31:41;;;;;;;9.57;2.47;;;;;;;;;;5107536;28;20048;-75
2022/04/15 14:34:11;;;;;;;9.65;2.70;;;;;;;;;;5107784;28;20043;-75
2022/04/15 14:36:42;;;;;;;5.65;1.95;;;;;;;;;;5108168;28;20044;-73
2022/04/15 14:39:12;;;;;;;13.48;2.60;;;;;;;;;;5095769;28;20048;-76
2022/04/15 14:41:47;;;;;;;11.00;2.33;;;;;;;;;;5107125;28;20058;-74
2022/04/15 14:44:16;;;;;;;12.20;2.53;;;;;;;;;;5089380;28;20055;-74
2022/04/15 14:46:46;;;;;;;15.93;2.70;;;;;;;;;;5107376;28;20407;-75
2022/04/15 14:49:16;;;;;;;11.27;4.47;;;;;;;;;;5107610;28;20062;-75
2022/04/15 14:51:49;;;;;;;11.02;3.03;;;;;;;;;;5106835;28;20117;-76
2022/04/15 14:54:19;;;;;;;14.38;2.75;;;;;;;;;;5110720;28;20048;-77
2022/04/15 14:56:50;;;;;;;;;;;;;;;;;;5110648;28;20059;-74
2022/04/15 14:59:19;;;;;;;9.77;3.10;;;;;;;;;;5117115;28;19923;-74
2022/04/15 15:01:50;;;;;;;9.63;2.75;;;;;;;;;;5124096;28;20047;-74
2022/04/15 15:04:22;;;;;;;12.32;3.03;;;;;;;;;;5109193;28;20044;-75
2022/04/15 15:07:12;;;;;;;12.43;3.03;;;;;;;;;;5103410;28;20052;-74
2022/04/15 15:09:42;;;;;;;9.38;2.72;;;;;;;;;;5093048;28;20040;-80
2022/04/15 15:12:12;;;;;;;14.85;2.92;;;;;;;;;;5086700;28;20407;-74
2022/04/15 15:14:42;;;;;;;16.45;4.35;;;;;;;;;;5086484;28;20056;-74